createdAt,value
2023-03-04T00:00:32.728Z,1.10
2023-03-04T00:03:00.629Z,1.00
2023-03-04T00:05:28.501Z,0.90
2023-03-04T00:07:56.114Z,0.90
2023-03-04T00:10:24.226Z,1.10
2023-03-04T00:12:51.977Z,1.10
2023-03-04T00:15:19.577Z,1.10
2023-03-04T00:17:47.452Z,1.20
2023-03-04T00:20:15.411Z,0.90
2023-03-04T00:22:43.016Z,0.80
2023-03-04T00:25:10.780Z,0.80
2023-03-04T00:27:38.542Z,0.40
2023-03-04T00:30:07.584Z,0.60
2023-03-04T00:32:35.295Z,0.60
2023-03-04T00:35:06.630Z,0.60
2023-03-04T00:37:35.182Z,0.80
2023-03-04T00:40:02.997Z,0.70
2023-03-04T00:42:30.918Z,0.80
2023-03-04T00:44:59.499Z,0.70
2023-03-04T00:47:27.223Z,0.60
2023-03-04T00:49:55.170Z,0.50
2023-03-04T00:52:22.792Z,0.60
2023-03-04T00:54:50.470Z,0.70
2023-03-04T00:57:18.241Z,0.70
2023-03-04T00:59:46.476Z,0.70
2023-03-04T01:02:14.410Z,0.60
2023-03-04T01:04:42.300Z,0.60
2023-03-04T01:07:10.024Z,0.50
2023-03-04T01:09:37.674Z,0.50
2023-03-04T01:12:05.616Z,0.50
2023-03-04T01:14:33.319Z,0.60
2023-03-04T01:17:01.139Z,0.50
2023-03-04T01:19:28.835Z,0.40
2023-03-04T01:21:56.568Z,0.10
2023-03-04T01:24:24.240Z,0.20
2023-03-04T01:26:51.876Z,0.00
2023-03-04T01:29:19.494Z,-0.20
2023-03-04T01:31:47.150Z,0.00
2023-03-04T01:34:15.080Z,0.10
2023-03-04T01:36:42.788Z,0.10
2023-03-04T01:39:10.484Z,-0.20
2023-03-04T01:41:38.165Z,-0.10
2023-03-04T01:44:06.370Z,0.10
2023-03-04T01:46:34.282Z,-0.10
2023-03-04T01:49:01.973Z,0.00
2023-03-04T01:51:29.690Z,-0.10
2023-03-04T01:53:57.291Z,-0.20
2023-03-04T01:56:30.401Z,-0.50
2023-03-04T01:59:20.930Z,-0.40
2023-03-04T02:01:54.971Z,-0.30
2023-03-04T02:04:25.706Z,-0.30
2023-03-04T02:06:54.123Z,-0.30
2023-03-04T02:09:22.425Z,-0.40
2023-03-04T02:11:53.338Z,-0.50
2023-03-04T02:14:22.128Z,-0.30
2023-03-04T02:16:50.658Z,-0.60
2023-03-04T02:19:43.050Z,-0.50
2023-03-04T02:22:10.857Z,-0.50
2023-03-04T02:25:09.504Z,-0.30
2023-03-04T02:27:37.305Z,-0.40
2023-03-04T02:30:05.849Z,-0.60
2023-03-04T02:32:34.055Z,-0.60
2023-03-04T02:35:01.827Z,-0.80
2023-03-04T02:37:29.541Z,-0.70
2023-03-04T02:39:57.438Z,-0.60
2023-03-04T02:42:25.055Z,-0.60
2023-03-04T02:45:00.876Z,-0.50
2023-03-04T02:47:28.681Z,-0.50
2023-03-04T02:49:56.762Z,-0.70
2023-03-04T02:52:27.224Z,-0.80
2023-03-04T02:54:54.961Z,-0.60
2023-03-04T02:57:23.305Z,-0.70
2023-03-04T02:59:54.689Z,-0.60
2023-03-04T03:02:26.929Z,-0.70
2023-03-04T03:04:54.598Z,-0.80
2023-03-04T03:07:22.507Z,-0.90
2023-03-04T03:09:50.413Z,-0.80
2023-03-04T03:12:19.406Z,-0.70
2023-03-04T03:14:47.174Z,-0.70
2023-03-04T03:17:18.662Z,-0.70
2023-03-04T03:19:47.945Z,-1.00
2023-03-04T03:22:16.534Z,-1.00
2023-03-04T03:24:44.658Z,-1.00
2023-03-04T03:27:12.354Z,-0.90
2023-03-04T03:29:40.358Z,-1.10
2023-03-04T03:32:09.193Z,-0.90
2023-03-04T03:34:36.927Z,-0.90
2023-03-04T03:37:04.660Z,-0.90
2023-03-04T03:39:32.406Z,-1.10
2023-03-04T03:42:00.109Z,-1.10
2023-03-04T03:44:27.866Z,-1.00
2023-03-04T03:46:55.516Z,-1.00
2023-03-04T03:49:23.234Z,-1.30
2023-03-04T03:51:50.996Z,-1.20
2023-03-04T03:54:18.711Z,-1.30
2023-03-04T03:56:46.449Z,-1.10
2023-03-04T03:59:14.124Z,-1.00
2023-03-04T04:01:41.915Z,-1.30
2023-03-04T04:04:09.720Z,-1.30
2023-03-04T04:06:37.452Z,-1.40
2023-03-04T04:09:05.267Z,-1.40
2023-03-04T04:11:33.104Z,-1.40
2023-03-04T04:14:00.814Z,-1.30
2023-03-04T04:16:28.722Z,-1.20
2023-03-04T04:18:56.413Z,-1.30
2023-03-04T04:21:24.082Z,-1.30
2023-03-04T04:23:51.730Z,-1.30
2023-03-04T04:26:19.373Z,-1.40
2023-03-04T04:28:46.992Z,-1.30
2023-03-04T04:31:14.717Z,-1.30
2023-03-04T04:33:42.432Z,-1.40
2023-03-04T04:36:14.687Z,-1.60
2023-03-04T04:38:42.492Z,-1.50
2023-03-04T04:41:23.253Z,-1.50
2023-03-04T04:43:51.749Z,-1.40
2023-03-04T04:46:19.569Z,-1.60
2023-03-04T04:48:47.480Z,-1.70
2023-03-04T04:51:15.235Z,-1.70
2023-03-04T04:53:43.598Z,-1.70
2023-03-04T04:56:17.203Z,-1.60
2023-03-04T04:58:46.056Z,-1.60
2023-03-04T05:01:14.270Z,-1.60
2023-03-04T05:03:42.184Z,-1.90
2023-03-04T05:06:11.920Z,-1.70
2023-03-04T05:08:40.247Z,-1.80
2023-03-04T05:11:08.453Z,-1.80
2023-03-04T05:13:36.266Z,-1.70
2023-03-04T05:16:04.744Z,-1.70
2023-03-04T05:18:32.808Z,-1.70
2023-03-04T05:21:02.524Z,-1.80
2023-03-04T05:23:33.966Z,-1.80
2023-03-04T05:26:02.326Z,-1.80
2023-03-04T05:28:30.079Z,-1.80
2023-03-04T05:30:57.847Z,-1.90
2023-03-04T05:33:25.622Z,-2.00
2023-03-04T05:35:55.168Z,-2.00
2023-03-04T05:38:23.234Z,-1.90
2023-03-04T05:40:58.520Z,-1.90
2023-03-04T05:43:27.981Z,-1.60
2023-03-04T05:45:55.754Z,-1.60
2023-03-04T05:48:23.821Z,-1.70
2023-03-04T05:50:59.714Z,-1.70
2023-03-04T05:53:28.549Z,-1.60
2023-03-04T05:55:56.620Z,-1.60
2023-03-04T05:58:24.398Z,-1.50
2023-03-04T06:00:52.077Z,-1.60
2023-03-04T06:03:22.199Z,-1.50
2023-03-04T06:05:49.993Z,-1.50
2023-03-04T06:08:17.662Z,-1.50
2023-03-04T06:10:45.388Z,-1.40
2023-03-04T06:13:13.819Z,-1.40
2023-03-04T06:15:41.476Z,-1.20
2023-03-04T06:18:09.167Z,-0.90
2023-03-04T06:20:37.350Z,-0.90
2023-03-04T06:23:05.813Z,-0.70
2023-03-04T06:25:33.537Z,-0.60
2023-03-04T06:28:01.232Z,-0.50
2023-03-04T06:30:29.240Z,-0.40
2023-03-04T06:32:57.073Z,-0.40
2023-03-04T06:35:24.985Z,-0.30
2023-03-04T06:37:53.140Z,-0.20
2023-03-04T06:40:20.890Z,-0.10
2023-03-04T06:43:06.756Z,0.10
2023-03-04T06:45:34.407Z,0.20
2023-03-04T06:48:02.380Z,0.20
2023-03-04T06:50:30.072Z,0.20
2023-03-04T06:52:58.335Z,0.30
2023-03-04T06:55:25.977Z,0.40
2023-03-04T06:57:53.842Z,0.60
2023-03-04T07:00:24.006Z,0.80
2023-03-04T07:02:54.081Z,0.90
2023-03-04T07:05:22.728Z,0.90
2023-03-04T07:07:50.726Z,0.90
2023-03-04T07:10:19.629Z,1.00
2023-03-04T07:12:47.282Z,1.10
2023-03-04T07:15:14.987Z,1.00
2023-03-04T07:17:42.591Z,0.90
2023-03-04T07:20:10.893Z,1.20
2023-03-04T07:22:38.616Z,1.10
2023-03-04T07:25:06.800Z,1.20
2023-03-04T07:27:34.879Z,1.20
2023-03-04T07:30:02.805Z,1.20
2023-03-04T07:32:30.499Z,1.40
2023-03-04T07:34:58.428Z,1.50
2023-03-04T07:37:26.514Z,1.70
2023-03-04T07:39:54.188Z,1.70
2023-03-04T07:42:21.806Z,1.80
2023-03-04T07:44:59.738Z,2.10
2023-03-04T07:47:28.133Z,2.20
2023-03-04T07:49:56.458Z,2.10
2023-03-04T07:52:24.378Z,2.20
2023-03-04T07:54:51.936Z,2.30
2023-03-04T07:57:19.543Z,2.50
2023-03-04T07:59:47.199Z,2.60
2023-03-04T08:02:15.756Z,2.70
2023-03-04T08:04:43.848Z,2.80
2023-03-04T08:07:11.471Z,2.80
2023-03-04T08:09:39.350Z,3.00
2023-03-04T08:12:07.310Z,3.10
2023-03-04T08:14:35.147Z,3.20
2023-03-04T08:17:02.783Z,3.20
2023-03-04T08:19:30.470Z,3.30
2023-03-04T08:21:58.048Z,3.30
2023-03-04T08:24:25.912Z,3.50
2023-03-04T08:27:13.247Z,3.70
2023-03-04T08:29:41.010Z,3.80
2023-03-04T08:32:08.748Z,4.00
2023-03-04T08:34:40.410Z,4.10
2023-03-04T08:37:08.096Z,4.40
2023-03-04T08:39:36.532Z,4.50
2023-03-04T08:42:04.208Z,4.60
2023-03-04T08:44:31.834Z,5.00
2023-03-04T08:46:59.509Z,5.20
2023-03-04T08:49:27.167Z,5.30
2023-03-04T08:51:55.761Z,5.70
2023-03-04T08:54:23.801Z,5.70
2023-03-04T08:56:51.462Z,6.00
2023-03-04T08:59:19.227Z,6.10
2023-03-04T09:01:47.062Z,6.40
2023-03-04T09:04:15.120Z,6.40
2023-03-04T09:06:42.780Z,6.50
2023-03-04T09:09:10.633Z,6.70
2023-03-04T09:11:38.442Z,6.70
2023-03-04T09:14:06.025Z,7.00
2023-03-04T09:16:33.819Z,7.00
2023-03-04T09:19:01.671Z,6.90
2023-03-04T09:21:29.361Z,7.10
2023-03-04T09:23:57.141Z,7.40
2023-03-04T09:26:28.010Z,7.60
2023-03-04T09:28:58.322Z,7.50
2023-03-04T09:31:26.881Z,8.00
2023-03-04T09:33:56.061Z,8.00
2023-03-04T09:36:24.542Z,7.80
2023-03-04T09:38:52.322Z,7.80
2023-03-04T09:41:26.857Z,7.90
2023-03-04T09:43:55.965Z,7.90
2023-03-04T09:46:45.019Z,8.10
2023-03-04T09:49:13.938Z,8.00
2023-03-04T09:52:17.191Z,8.20
2023-03-04T09:55:04.788Z,8.20
2023-03-04T09:57:53.210Z,8.20
2023-03-04T10:00:43.382Z,8.40
2023-03-04T10:03:18.782Z,8.30
2023-03-04T10:06:06.784Z,8.60
2023-03-04T10:08:44.993Z,8.30
2023-03-04T10:11:48.034Z,8.40
2023-03-04T10:14:21.781Z,8.20
2023-03-04T10:16:52.648Z,8.10
2023-03-04T10:19:49.542Z,8.00
2023-03-04T10:22:29.154Z,8.30
2023-03-04T10:24:58.769Z,8.20
2023-03-04T10:27:26.630Z,8.10
2023-03-04T10:29:54.279Z,8.00
2023-03-04T10:32:22.116Z,7.90
2023-03-04T10:34:49.817Z,8.20
2023-03-04T10:37:17.498Z,8.00
2023-03-04T10:39:46.940Z,8.20
2023-03-04T10:42:14.564Z,8.40
2023-03-04T10:44:45.046Z,8.60
2023-03-04T10:47:14.357Z,8.30
2023-03-04T10:50:21.193Z,7.90
2023-03-04T10:52:53.587Z,8.20
2023-03-04T10:55:28.101Z,8.00
2023-03-04T10:58:02.813Z,7.90
2023-03-04T11:00:36.868Z,8.40
2023-03-04T11:03:29.041Z,8.30
2023-03-04T11:06:18.790Z,8.00
2023-03-04T11:09:02.150Z,8.40
2023-03-04T11:11:44.801Z,8.40
2023-03-04T11:14:26.139Z,8.30
2023-03-04T11:17:02.824Z,8.70
2023-03-04T11:19:39.807Z,8.20
2023-03-04T11:22:07.474Z,8.40
2023-03-04T11:24:37.875Z,8.50
2023-03-04T11:27:45.803Z,8.30
2023-03-04T11:30:38.236Z,8.40
2023-03-04T11:33:50.385Z,8.40
2023-03-04T11:36:31.958Z,8.80
2023-03-04T11:39:01.961Z,9.00
2023-03-04T11:41:37.341Z,8.60
2023-03-04T11:44:09.212Z,9.10
2023-03-04T11:46:46.344Z,9.00
2023-03-04T11:49:19.965Z,8.80
2023-03-04T11:52:19.881Z,9.10
2023-03-04T11:55:09.634Z,9.10
2023-03-04T11:58:19.985Z,9.30
2023-03-04T12:01:00.199Z,9.40
2023-03-04T12:03:48.591Z,8.90
2023-03-04T12:06:22.316Z,9.10
2023-03-04T12:09:13.398Z,9.00
2023-03-04T12:12:16.360Z,9.00
2023-03-04T12:14:59.154Z,9.20
2023-03-04T12:17:35.788Z,9.10
2023-03-04T12:20:31.377Z,9.20
2023-03-04T12:23:18.140Z,9.20
2023-03-04T12:26:07.689Z,9.10
2023-03-04T12:28:53.482Z,9.20
2023-03-04T12:31:57.645Z,9.30
2023-03-04T12:34:44.104Z,9.20
2023-03-04T12:37:24.324Z,9.10
2023-03-04T12:40:23.057Z,9.00
2023-03-04T12:43:07.542Z,9.10
2023-03-04T12:45:40.653Z,9.40
2023-03-04T12:48:28.263Z,9.50
2023-03-04T12:51:17.805Z,9.40
2023-03-04T12:53:45.494Z,9.20
2023-03-04T12:56:37.683Z,9.80
2023-03-04T12:59:07.057Z,10.00
2023-03-04T13:01:42.881Z,10.10
2023-03-04T13:04:30.497Z,10.10
2023-03-04T13:07:16.587Z,9.70
2023-03-04T13:10:05.262Z,10.00
2023-03-04T13:12:51.686Z,9.70
2023-03-04T13:15:22.378Z,10.50
2023-03-04T13:17:55.905Z,10.40
2023-03-04T13:20:35.740Z,9.90
2023-03-04T13:23:09.542Z,9.70
2023-03-04T13:25:58.047Z,10.30
2023-03-04T13:28:29.684Z,10.20
2023-03-04T13:30:59.601Z,9.80
2023-03-04T13:33:27.379Z,9.50
2023-03-04T13:36:04.161Z,9.20
2023-03-04T13:38:32.543Z,8.90
2023-03-04T13:41:23.262Z,9.10
2023-03-04T13:43:55.989Z,9.00
2023-03-04T13:46:31.074Z,9.10
2023-03-04T13:49:01.301Z,9.40
2023-03-04T13:51:46.340Z,9.50
2023-03-04T13:54:20.103Z,9.30
2023-03-04T13:57:20.799Z,9.60
2023-03-04T13:59:57.141Z,9.40
2023-03-04T14:02:26.290Z,9.20
2023-03-04T14:04:53.911Z,8.70
2023-03-04T14:07:29.757Z,8.80
2023-03-04T14:10:11.600Z,8.60
2023-03-04T14:12:45.725Z,8.50
2023-03-04T14:15:21.138Z,8.80
2023-03-04T14:17:55.729Z,8.50
2023-03-04T14:20:38.643Z,8.70
2023-03-04T14:23:32.451Z,8.30
2023-03-04T14:26:07.562Z,8.60
2023-03-04T14:28:44.176Z,8.20
2023-03-04T14:31:20.395Z,8.10
2023-03-04T14:33:51.357Z,8.50
2023-03-04T14:36:22.299Z,8.50
2023-03-04T14:38:59.511Z,8.20
2023-03-04T14:41:39.938Z,8.20
2023-03-04T14:44:26.317Z,8.30
2023-03-04T14:47:07.653Z,8.20
2023-03-04T14:49:37.809Z,8.00
2023-03-04T14:52:07.038Z,8.00
2023-03-04T14:54:34.852Z,8.20
2023-03-04T14:57:26.586Z,8.50
2023-03-04T14:59:54.880Z,8.10
2023-03-04T15:02:32.503Z,7.90
2023-03-04T15:05:17.909Z,8.10
2023-03-04T15:07:53.048Z,8.00
2023-03-04T15:10:24.677Z,8.10
2023-03-04T15:12:56.656Z,8.10
2023-03-04T15:15:43.714Z,7.90
2023-03-04T15:18:26.545Z,8.00
2023-03-04T15:21:20.503Z,8.10
2023-03-04T15:23:48.514Z,7.50
2023-03-04T15:26:16.824Z,7.60
2023-03-04T15:28:45.178Z,7.50
2023-03-04T15:31:19.032Z,7.30
2023-03-04T15:33:47.361Z,7.30
2023-03-04T15:36:18.040Z,7.10
2023-03-04T15:38:49.810Z,7.10
2023-03-04T15:41:27.124Z,7.20
2023-03-04T15:43:55.162Z,7.10
2023-03-04T15:46:24.032Z,7.10
2023-03-04T15:48:52.273Z,7.00
2023-03-04T15:51:26.994Z,6.80
2023-03-04T15:53:57.674Z,6.80
2023-03-04T15:56:32.493Z,6.80
2023-03-04T15:59:12.276Z,6.80
2023-03-04T16:01:40.643Z,6.70
2023-03-04T16:04:19.100Z,6.60
2023-03-04T16:06:49.363Z,6.50
2023-03-04T16:09:21.140Z,6.40
2023-03-04T16:11:50.460Z,6.40
2023-03-04T16:14:21.093Z,6.30
2023-03-04T16:16:51.134Z,6.20
2023-03-04T16:19:19.106Z,6.20
2023-03-04T16:21:47.487Z,6.20
2023-03-04T16:24:21.086Z,6.10
2023-03-04T16:26:49.301Z,6.00
2023-03-04T16:29:17.549Z,5.90
2023-03-04T16:31:45.789Z,5.90
2023-03-04T16:34:14.196Z,5.70
2023-03-04T16:36:42.514Z,5.70
2023-03-04T16:39:28.360Z,5.50
2023-03-04T16:41:57.805Z,5.50
2023-03-04T16:44:25.773Z,5.40
2023-03-04T16:46:54.540Z,5.20
2023-03-04T16:49:22.746Z,5.10
2023-03-04T16:51:52.454Z,5.10
2023-03-04T16:54:30.840Z,5.00
2023-03-04T16:56:59.905Z,4.80
2023-03-04T16:59:30.531Z,4.70
2023-03-04T17:01:58.773Z,4.60
2023-03-04T17:04:30.975Z,4.60
2023-03-04T17:07:01.255Z,4.60
2023-03-04T17:09:29.562Z,4.50
2023-03-04T17:12:00.060Z,4.50
2023-03-04T17:14:29.229Z,4.50
2023-03-04T17:16:58.361Z,4.40
2023-03-04T17:19:27.401Z,4.30
2023-03-04T17:21:58.351Z,4.20
2023-03-04T17:24:27.099Z,4.20
2023-03-04T17:26:56.496Z,4.20
2023-03-04T17:29:26.084Z,4.20
2023-03-04T17:31:56.148Z,4.20
2023-03-04T17:34:24.710Z,4.10
2023-03-04T17:36:53.656Z,4.10
2023-03-04T17:39:24.294Z,4.00
2023-03-04T17:41:53.861Z,4.00
2023-03-04T17:44:22.539Z,3.80
2023-03-04T17:46:50.874Z,3.80
2023-03-04T17:49:19.514Z,3.70
2023-03-04T17:51:48.137Z,3.70
2023-03-04T17:54:17.038Z,3.60
2023-03-04T17:56:45.760Z,3.50
2023-03-04T17:59:16.481Z,3.50
2023-03-04T18:01:48.862Z,3.40
2023-03-04T18:04:18.229Z,3.40
2023-03-04T18:06:51.865Z,3.30
2023-03-04T18:09:20.736Z,3.30
2023-03-04T18:11:49.506Z,3.30
2023-03-04T18:14:22.645Z,3.30
2023-03-04T18:16:53.280Z,3.20
2023-03-04T18:19:22.135Z,3.20
2023-03-04T18:21:52.238Z,3.20
2023-03-04T18:24:22.022Z,3.10
2023-03-04T18:26:52.868Z,3.10
2023-03-04T18:29:21.836Z,3.00
2023-03-04T18:31:50.579Z,3.00
2023-03-04T18:34:19.226Z,2.90
2023-03-04T18:36:50.677Z,2.90
2023-03-04T18:39:19.674Z,2.80
2023-03-04T18:41:48.310Z,2.80
2023-03-04T18:44:17.419Z,2.80
2023-03-04T18:46:53.110Z,2.80
2023-03-04T18:49:24.202Z,2.80
2023-03-04T18:51:53.707Z,2.70
2023-03-04T18:54:23.729Z,2.70
2023-03-04T18:56:57.136Z,2.80
2023-03-04T18:59:47.682Z,2.70
2023-03-04T19:02:40.156Z,2.70
2023-03-04T19:05:20.442Z,2.70
2023-03-04T19:07:49.211Z,2.70
2023-03-04T19:10:20.787Z,2.70
2023-03-04T19:12:49.267Z,2.70
2023-03-04T19:15:19.060Z,2.70
2023-03-04T19:17:48.212Z,2.70
2023-03-04T19:20:17.661Z,2.70
2023-03-04T19:22:49.012Z,2.60
2023-03-04T19:25:19.131Z,2.70
2023-03-04T19:27:48.420Z,2.60
2023-03-04T19:30:18.215Z,2.60
2023-03-04T19:32:48.235Z,2.60
2023-03-04T19:35:18.660Z,2.50
2023-03-04T19:37:47.423Z,2.60
2023-03-04T19:40:19.352Z,2.50
2023-03-04T19:42:48.770Z,2.50
2023-03-04T19:45:18.989Z,2.50
2023-03-04T19:47:47.786Z,2.50
2023-03-04T19:50:17.641Z,2.50
2023-03-04T19:52:52.011Z,2.50
2023-03-04T19:55:20.963Z,2.50
2023-03-04T19:57:49.590Z,2.40
2023-03-04T20:00:21.508Z,2.40
2023-03-04T20:02:51.345Z,2.40
2023-03-04T20:05:20.004Z,2.40
2023-03-04T20:07:50.635Z,2.40
2023-03-04T20:10:20.301Z,2.40
2023-03-04T20:12:48.793Z,2.40
2023-03-04T20:15:19.857Z,2.30
2023-03-04T20:17:49.540Z,2.30
2023-03-04T20:20:18.577Z,2.30
2023-03-04T20:22:47.367Z,2.30
2023-03-04T20:25:17.157Z,2.30
2023-03-04T20:27:46.134Z,2.30
2023-03-04T20:30:15.410Z,2.30
2023-03-04T20:32:44.210Z,2.30
2023-03-04T20:35:15.594Z,2.40
2023-03-04T20:37:45.586Z,2.40
2023-03-04T20:40:14.018Z,2.30
2023-03-04T20:42:46.861Z,2.40
2023-03-04T20:45:15.479Z,2.50
2023-03-04T20:47:44.307Z,2.40
2023-03-04T20:50:14.258Z,2.40
2023-03-04T20:52:43.402Z,2.50
2023-03-04T20:55:12.410Z,2.50
2023-03-04T20:57:41.590Z,2.50
2023-03-04T21:00:14.289Z,2.40
2023-03-04T21:02:42.808Z,2.40
2023-03-04T21:05:14.438Z,2.50
2023-03-04T21:07:42.838Z,2.50
2023-03-04T21:10:11.935Z,2.40
2023-03-04T21:12:40.132Z,2.50
2023-03-04T21:15:08.846Z,2.50
2023-03-04T21:17:37.890Z,2.50
2023-03-04T21:20:08.015Z,2.50
2023-03-04T21:22:35.855Z,2.50
2023-03-04T21:25:04.193Z,2.50
2023-03-04T21:27:32.053Z,2.40
2023-03-04T21:29:59.923Z,2.30
2023-03-04T21:32:27.772Z,2.30
2023-03-04T21:34:56.308Z,2.30
2023-03-04T21:37:25.917Z,2.30
2023-03-04T21:39:55.149Z,2.30
2023-03-04T21:42:23.488Z,2.30
2023-03-04T21:44:53.651Z,2.30
2023-03-04T21:47:22.677Z,2.40
2023-03-04T21:49:51.429Z,2.30
2023-03-04T21:52:21.309Z,2.40
2023-03-04T21:54:49.686Z,2.50
2023-03-04T21:57:18.508Z,2.30
2023-03-04T21:59:46.164Z,2.30
2023-03-04T22:02:21.482Z,2.40
2023-03-04T22:04:49.608Z,2.30
2023-03-04T22:07:17.728Z,2.40
2023-03-04T22:09:45.468Z,2.40
2023-03-04T22:12:15.150Z,2.40
2023-03-04T22:14:43.468Z,2.40
2023-03-04T22:17:11.142Z,2.40
2023-03-04T22:19:38.939Z,2.40
2023-03-04T22:22:06.624Z,2.40
2023-03-04T22:24:34.244Z,2.40
2023-03-04T22:27:01.904Z,2.40
2023-03-04T22:29:29.548Z,2.40
2023-03-04T22:31:57.264Z,2.40
2023-03-04T22:34:25.191Z,2.30
2023-03-04T22:36:52.737Z,2.20
2023-03-04T22:39:20.562Z,2.20
2023-03-04T22:41:48.497Z,2.20
2023-03-04T22:44:16.252Z,2.20
2023-03-04T22:46:44.807Z,2.20
2023-03-04T22:49:14.331Z,2.30
2023-03-04T22:51:44.289Z,2.20
2023-03-04T22:54:16.976Z,2.10
2023-03-04T22:56:45.321Z,2.10
2023-03-04T22:59:13.810Z,2.20
2023-03-04T23:01:42.054Z,2.10
2023-03-04T23:04:09.799Z,2.10
2023-03-04T23:06:37.913Z,2.10
2023-03-04T23:09:06.299Z,2.20
2023-03-04T23:11:35.675Z,2.10
2023-03-04T23:14:22.037Z,2.10
2023-03-04T23:16:49.923Z,2.00
2023-03-04T23:19:17.904Z,2.10
2023-03-04T23:21:45.751Z,2.00
2023-03-04T23:24:14.315Z,2.00
2023-03-04T23:26:52.434Z,2.20
2023-03-04T23:29:20.281Z,2.20
2023-03-04T23:31:48.045Z,2.20
2023-03-04T23:34:15.721Z,2.20
2023-03-04T23:36:43.594Z,2.20
2023-03-04T23:39:12.894Z,2.30
2023-03-04T23:41:40.493Z,2.30
2023-03-04T23:44:08.692Z,2.20
2023-03-04T23:46:37.810Z,2.20
2023-03-04T23:49:12.888Z,2.20
2023-03-04T23:51:41.129Z,2.10
2023-03-04T23:54:09.582Z,2.20
2023-03-04T23:56:37.195Z,2.20
2023-03-04T23:59:05.272Z,2.20
